Terminal Aerodrome Forecast
Issued by NWS

Home | Current Version | Previous Version | Graphics & Text | Print | Product List | Glossary On
Versions: 1 2 3 4 5 6 7 8 9 10 11 12 13
000
FTUS45 KGGW 220200 AAA
TAFOLF
TAF AMD
KOLF 220200Z 2202/2224 20008KT P6SM SCT110
     FM220230 30015G40KT P6SM SCT110
     FM220400 29009KT P6SM BKN090
     FM222200 28011KT P6SM FEW150=

USA.gov is the U.S. government's official web portal to all federal, state and local government web resources and services.